createdAt,value
2022-08-03T00:00:29.901Z,17.04
2022-08-03T00:03:03.947Z,17.08
2022-08-03T00:05:33.360Z,17.13
2022-08-03T00:08:01.301Z,17.17
2022-08-03T00:10:29.184Z,17.20
2022-08-03T00:12:56.741Z,17.23
2022-08-03T00:15:24.346Z,17.26
2022-08-03T00:17:54.100Z,17.29
2022-08-03T00:20:22.195Z,17.30
2022-08-03T00:22:50.354Z,17.30
2022-08-03T00:25:18.471Z,17.29
2022-08-03T00:27:46.030Z,17.28
2022-08-03T00:30:17.000Z,17.28
2022-08-03T00:32:45.562Z,17.27
2022-08-03T00:35:36.367Z,17.23
2022-08-03T00:38:00.644Z,17.19
2022-08-03T00:40:28.756Z,17.16
2022-08-03T00:42:59.522Z,17.13
2022-08-03T00:45:30.081Z,17.09
2022-08-03T00:47:58.575Z,17.04
2022-08-03T00:50:30.522Z,16.99
2022-08-03T00:52:59.814Z,16.97
2022-08-03T00:55:27.797Z,16.93
2022-08-03T00:57:56.253Z,16.89
2022-08-03T01:00:30.254Z,16.87
2022-08-03T01:02:57.706Z,16.85
2022-08-03T01:05:25.860Z,16.85
2022-08-03T01:08:26.403Z,16.84
2022-08-03T01:11:15.922Z,16.86
2022-08-03T01:14:18.600Z,16.90
2022-08-03T01:17:19.028Z,16.92
2022-08-03T01:20:07.448Z,16.92
2022-08-03T01:23:06.966Z,16.91
2022-08-03T01:25:56.823Z,16.93
2022-08-03T01:28:50.219Z,16.96
2022-08-03T01:32:53.557Z,16.99
2022-08-03T01:34:41.314Z,17.01
2022-08-03T01:37:18.147Z,17.00
2022-08-03T01:39:46.433Z,17.00
2022-08-03T01:42:18.063Z,16.98
2022-08-03T01:44:57.352Z,16.96
2022-08-03T01:47:33.809Z,16.94
2022-08-03T01:50:03.155Z,16.93
2022-08-03T01:52:33.723Z,16.92
2022-08-03T01:55:03.296Z,16.89
2022-08-03T01:57:31.244Z,16.89
2022-08-03T02:00:01.814Z,16.90
2022-08-03T02:02:34.647Z,16.91
2022-08-03T02:05:05.927Z,16.90
2022-08-03T02:07:41.470Z,16.91
2022-08-03T02:10:11.539Z,16.94
2022-08-03T02:12:39.897Z,16.97
2022-08-03T02:15:07.812Z,16.98
2022-08-03T02:17:39.449Z,17.00
2022-08-03T02:23:12.440Z,17.02
2022-08-03T02:25:45.731Z,17.00
2022-08-03T02:31:21.981Z,16.98
2022-08-03T02:33:53.501Z,16.94
2022-08-03T02:36:27.051Z,16.92
2022-08-03T02:39:04.451Z,16.95
2022-08-03T02:41:41.751Z,16.96
2022-08-03T02:44:24.014Z,16.96
2022-08-03T02:46:56.073Z,16.97
2022-08-03T02:49:40.830Z,16.98
2022-08-03T02:52:15.982Z,16.97
2022-08-03T02:54:47.566Z,16.98
2022-08-03T02:57:16.643Z,16.98
2022-08-03T02:59:45.839Z,16.99
2022-08-03T03:02:20.997Z,16.99
2022-08-03T03:05:53.052Z,16.99
2022-08-03T03:07:51.872Z,17.01
2022-08-03T03:10:22.337Z,17.03
2022-08-03T03:12:56.492Z,17.03
2022-08-03T03:15:26.329Z,17.03
2022-08-03T03:17:54.954Z,17.05
2022-08-03T03:20:30.620Z,17.04
2022-08-03T03:22:59.998Z,17.04
2022-08-03T03:25:34.402Z,17.06
2022-08-03T03:28:03.045Z,17.09
2022-08-03T03:30:30.899Z,17.11
2022-08-03T03:32:59.082Z,17.13
2022-08-03T03:35:27.623Z,17.13
2022-08-03T03:37:55.429Z,17.15
2022-08-03T03:40:23.079Z,17.16
2022-08-03T03:42:53.786Z,17.16
2022-08-03T03:45:22.232Z,17.19
2022-08-03T03:47:50.163Z,17.23
2022-08-03T03:50:19.346Z,17.26
2022-08-03T03:52:46.922Z,17.26
2022-08-03T03:55:18.939Z,17.30
2022-08-03T03:57:46.521Z,17.32
2022-08-03T04:00:15.718Z,17.36
2022-08-03T04:02:44.330Z,17.40
2022-08-03T04:05:28.714Z,17.44
2022-08-03T04:08:15.416Z,17.49
2022-08-03T04:11:04.457Z,17.54
2022-08-03T04:13:38.229Z,17.58
2022-08-03T04:16:14.566Z,17.62
2022-08-03T04:18:48.299Z,17.66
2022-08-03T04:21:19.031Z,17.72
2022-08-03T04:23:49.918Z,17.78
2022-08-03T04:26:22.434Z,17.85
2022-08-03T04:28:51.850Z,17.94
2022-08-03T04:31:23.252Z,18.03
2022-08-03T04:33:52.699Z,18.08
2022-08-03T04:36:23.562Z,18.14
2022-08-03T04:39:16.374Z,18.21
2022-08-03T04:42:07.614Z,18.31
2022-08-03T04:44:37.777Z,18.39
2022-08-03T04:47:05.401Z,18.49
2022-08-03T04:49:34.945Z,18.55
2022-08-03T04:52:03.518Z,18.61
2022-08-03T04:54:33.436Z,18.66
2022-08-03T04:57:01.598Z,18.71
2022-08-03T04:59:32.113Z,18.78
2022-08-03T05:02:04.796Z,18.83
2022-08-03T05:04:35.015Z,18.89
2022-08-03T05:07:12.594Z,18.94
2022-08-03T05:09:50.186Z,18.98
2022-08-03T05:12:20.124Z,19.04
2022-08-03T05:14:47.661Z,19.11
2022-08-03T05:17:15.141Z,19.18
2022-08-03T05:19:42.734Z,19.26
2022-08-03T05:22:10.671Z,19.35
2022-08-03T05:24:38.242Z,19.44
2022-08-03T05:27:06.191Z,19.57
2022-08-03T05:29:33.971Z,19.70
2022-08-03T05:32:08.016Z,19.83
2022-08-03T05:34:36.001Z,19.94
2022-08-03T05:37:03.889Z,20.04
2022-08-03T05:39:31.484Z,20.16
2022-08-03T05:41:59.551Z,20.30
2022-08-03T05:44:27.105Z,20.43
2022-08-03T05:46:55.145Z,20.59
2022-08-03T05:49:23.245Z,20.73
2022-08-03T05:51:59.980Z,20.88
2022-08-03T05:54:56.897Z,21.02
2022-08-03T05:57:27.774Z,21.19
2022-08-03T05:59:58.672Z,21.32
2022-08-03T06:02:27.250Z,21.46
2022-08-03T06:04:54.791Z,21.59
2022-08-03T06:07:22.832Z,21.71
2022-08-03T06:10:36.157Z,21.81
2022-08-03T06:12:40.972Z,21.92
2022-08-03T06:15:11.556Z,22.03
2022-08-03T06:17:52.440Z,22.13
2022-08-03T06:20:21.147Z,22.18
2022-08-03T06:22:50.865Z,22.21
2022-08-03T06:25:21.194Z,22.25
2022-08-03T06:27:49.068Z,22.25
2022-08-03T06:30:21.071Z,22.24
2022-08-03T06:32:52.207Z,22.22
2022-08-03T06:35:20.492Z,22.25
2022-08-03T06:37:52.017Z,22.32
2022-08-03T06:40:31.376Z,22.41
2022-08-03T06:43:01.547Z,22.55
2022-08-03T06:45:31.678Z,22.65
2022-08-03T06:48:25.353Z,22.74
2022-08-03T06:50:52.838Z,22.88
2022-08-03T06:53:21.316Z,23.01
2022-08-03T06:55:54.192Z,23.13
2022-08-03T06:58:22.911Z,23.27
2022-08-03T07:00:50.449Z,23.44
2022-08-03T07:03:18.266Z,23.58
2022-08-03T07:05:47.109Z,23.73
2022-08-03T07:08:15.239Z,23.89
2022-08-03T07:10:43.409Z,24.03
2022-08-03T07:13:11.769Z,24.15
2022-08-03T07:15:55.843Z,24.25
2022-08-03T07:18:28.352Z,24.37
2022-08-03T07:20:58.530Z,24.47
2022-08-03T07:23:26.005Z,24.55
2022-08-03T07:25:53.444Z,24.63
2022-08-03T07:28:21.025Z,24.76
2022-08-03T07:30:48.583Z,24.84
2022-08-03T07:33:16.622Z,24.89
2022-08-03T07:35:44.105Z,24.95
2022-08-03T07:38:11.580Z,25.02
2022-08-03T07:40:42.094Z,25.08
2022-08-03T07:43:13.415Z,25.09
2022-08-03T07:45:40.986Z,25.07
2022-08-03T07:48:12.140Z,25.00
2022-08-03T07:50:40.731Z,24.97
2022-08-03T07:53:08.609Z,24.97
2022-08-03T07:55:36.160Z,25.05
2022-08-03T07:58:06.057Z,25.17
2022-08-03T08:00:34.114Z,25.37
2022-08-03T08:03:02.079Z,25.63
2022-08-03T08:05:29.754Z,25.86
2022-08-03T08:07:57.341Z,26.04
2022-08-03T08:10:25.386Z,26.21
2022-08-03T08:12:53.422Z,26.35
2022-08-03T08:15:20.955Z,26.48
2022-08-03T08:17:54.643Z,26.55
2022-08-03T08:20:37.904Z,26.58
2022-08-03T08:23:19.989Z,26.48
2022-08-03T08:25:56.585Z,26.41
2022-08-03T08:28:32.511Z,26.42
2022-08-03T08:31:02.178Z,26.48
2022-08-03T08:33:47.845Z,26.55
2022-08-03T08:36:18.408Z,26.62
2022-08-03T08:38:45.977Z,26.65
2022-08-03T08:41:14.838Z,26.68
2022-08-03T08:43:42.910Z,26.72
2022-08-03T08:46:12.962Z,26.77
2022-08-03T08:48:53.408Z,26.80
2022-08-03T08:51:22.306Z,26.79
2022-08-03T08:53:52.162Z,26.83
2022-08-03T08:56:25.615Z,26.86
2022-08-03T08:58:58.271Z,26.87
2022-08-03T09:01:26.541Z,26.91
2022-08-03T09:03:54.784Z,27.09
2022-08-03T09:06:24.419Z,27.20
2022-08-03T09:08:52.167Z,27.29
2022-08-03T09:11:51.654Z,27.36
2022-08-03T09:14:34.418Z,27.48
2022-08-03T09:17:05.209Z,27.60
2022-08-03T09:19:34.293Z,27.68
2022-08-03T09:22:18.678Z,27.82
2022-08-03T09:25:27.238Z,28.10
2022-08-03T09:27:54.964Z,28.44
2022-08-03T09:30:34.993Z,28.72
2022-08-03T09:33:08.330Z,29.02
2022-08-03T09:35:54.231Z,29.34
2022-08-03T09:38:26.020Z,29.53
2022-08-03T09:40:59.217Z,29.55
2022-08-03T09:43:45.861Z,29.65
2022-08-03T09:46:13.336Z,29.76
2022-08-03T09:48:40.797Z,29.71
2022-08-03T09:51:13.349Z,29.78
2022-08-03T09:53:57.007Z,30.05
2022-08-03T09:56:45.069Z,30.32
2022-08-03T09:59:22.875Z,30.45
2022-08-03T10:01:50.477Z,30.48
2022-08-03T10:04:18.257Z,30.39
2022-08-03T10:07:01.457Z,30.32
2022-08-03T10:09:29.091Z,30.20
2022-08-03T10:11:58.459Z,30.09
2022-08-03T10:14:30.307Z,30.03
2022-08-03T10:16:57.805Z,29.97
2022-08-03T10:19:25.765Z,29.95
2022-08-03T10:21:59.194Z,29.88
2022-08-03T10:24:29.850Z,29.84
2022-08-03T10:27:08.123Z,29.84
2022-08-03T10:29:42.899Z,29.98
2022-08-03T10:32:22.818Z,30.04
2022-08-03T10:34:52.172Z,30.22
2022-08-03T10:37:32.193Z,30.31
2022-08-03T10:40:03.005Z,30.16
2022-08-03T10:42:31.865Z,30.32
2022-08-03T10:45:13.911Z,30.34
2022-08-03T10:47:41.863Z,30.22
2022-08-03T10:50:10.256Z,30.05
2022-08-03T10:52:57.913Z,29.82
2022-08-03T10:55:56.866Z,29.81
2022-08-03T10:58:53.428Z,30.13
2022-08-03T11:01:58.868Z,30.88
2022-08-03T11:04:30.357Z,31.61
2022-08-03T11:07:17.477Z,32.24
2022-08-03T11:09:48.483Z,32.81
2022-08-03T11:12:33.521Z,32.89
2022-08-03T11:15:08.453Z,32.69
2022-08-03T11:17:46.378Z,32.47
2022-08-03T11:20:47.326Z,32.46
2022-08-03T11:23:17.241Z,32.63
2022-08-03T11:26:17.254Z,32.82
2022-08-03T11:28:47.597Z,32.98
2022-08-03T11:32:00.137Z,32.97
2022-08-03T11:34:18.778Z,32.96
2022-08-03T11:37:19.090Z,32.95
2022-08-03T11:39:48.648Z,33.26
2022-08-03T11:42:22.439Z,33.68
2022-08-03T11:44:51.291Z,34.05
2022-08-03T11:47:20.842Z,34.26
2022-08-03T11:49:52.635Z,34.25
2022-08-03T11:52:26.804Z,34.69
2022-08-03T11:54:57.132Z,35.12
2022-08-03T11:58:57.732Z,35.35
2022-08-03T12:00:30.657Z,35.98
2022-08-03T12:03:01.994Z,36.11
2022-08-03T12:05:52.260Z,35.49
2022-08-03T12:08:26.323Z,34.87
2022-08-03T12:10:58.559Z,34.53
2022-08-03T12:14:28.932Z,34.75
2022-08-03T12:16:23.266Z,35.35
2022-08-03T12:18:59.097Z,36.05
2022-08-03T12:21:27.887Z,36.37
2022-08-03T12:24:01.284Z,36.55
2022-08-03T12:26:31.163Z,37.03
2022-08-03T12:28:58.627Z,37.63
2022-08-03T12:31:26.210Z,37.82
2022-08-03T12:33:59.783Z,38.19
2022-08-03T12:36:28.822Z,38.62
2022-08-03T12:38:59.015Z,38.87
2022-08-03T12:41:36.984Z,38.63
2022-08-03T12:44:06.472Z,38.27
2022-08-03T12:46:43.945Z,38.15
2022-08-03T12:49:18.641Z,38.30
2022-08-03T12:51:46.205Z,38.50
2022-08-03T12:54:24.796Z,38.73
2022-08-03T12:57:10.415Z,38.93
2022-08-03T12:59:52.672Z,39.21
2022-08-03T13:02:24.550Z,38.94
2022-08-03T13:04:55.143Z,38.82
2022-08-03T13:07:23.392Z,38.86
2022-08-03T13:09:57.254Z,38.85
2022-08-03T13:12:28.641Z,39.06
2022-08-03T13:14:58.144Z,39.47
2022-08-03T13:17:26.638Z,39.91
2022-08-03T13:19:54.113Z,40.49
2022-08-03T13:22:28.908Z,40.99
2022-08-03T13:24:58.152Z,41.76
2022-08-03T13:28:03.094Z,42.25
2022-08-03T13:30:17.900Z,42.52
2022-08-03T13:33:00.416Z,42.68
2022-08-03T13:35:27.984Z,43.03
2022-08-03T13:37:55.542Z,42.83
2022-08-03T13:40:23.616Z,42.34
2022-08-03T13:42:58.349Z,42.17
2022-08-03T13:45:27.447Z,42.13
2022-08-03T13:47:54.948Z,42.34
2022-08-03T13:50:22.434Z,42.33
2022-08-03T13:52:49.930Z,42.30
2022-08-03T13:55:17.428Z,42.15
2022-08-03T13:58:05.235Z,41.84
2022-08-03T14:00:32.237Z,41.58
2022-08-03T14:03:06.626Z,41.79
2022-08-03T14:05:38.663Z,41.81
2022-08-03T14:08:07.242Z,41.94
2022-08-03T14:10:41.535Z,42.16
2022-08-03T14:13:12.511Z,42.39
2022-08-03T14:15:42.499Z,42.45
2022-08-03T14:18:29.190Z,42.71
2022-08-03T14:21:06.875Z,42.91
2022-08-03T14:23:37.883Z,43.07
2022-08-03T14:26:09.502Z,43.49
2022-08-03T14:28:37.019Z,43.71
2022-08-03T14:31:08.343Z,43.69
2022-08-03T14:33:52.665Z,43.99
2022-08-03T14:36:20.156Z,44.25
2022-08-03T14:38:48.015Z,43.94
2022-08-03T14:41:19.814Z,43.50
2022-08-03T14:44:01.472Z,42.98
2022-08-03T14:46:31.768Z,42.60
2022-08-03T14:50:30.973Z,42.71
2022-08-03T14:51:53.394Z,42.57
2022-08-03T14:54:22.811Z,42.41
2022-08-03T14:56:50.745Z,42.44
2022-08-03T14:59:18.213Z,42.68
2022-08-03T15:02:04.728Z,43.23
2022-08-03T15:04:33.149Z,43.82
2022-08-03T15:07:00.613Z,44.09
2022-08-03T15:09:28.065Z,44.33
2022-08-03T15:11:55.524Z,44.47
2022-08-03T15:14:28.474Z,44.87
2022-08-03T15:17:01.011Z,45.25
2022-08-03T15:20:00.931Z,45.25
2022-08-03T15:22:17.100Z,44.85
2022-08-03T15:24:48.181Z,44.51
2022-08-03T15:27:15.762Z,44.30
2022-08-03T15:30:08.785Z,44.06
2022-08-03T15:32:30.601Z,44.28
2022-08-03T15:34:58.043Z,44.43
2022-08-03T15:37:25.852Z,44.32
2022-08-03T15:39:59.487Z,44.11
2022-08-03T15:42:29.780Z,43.94
2022-08-03T15:44:57.318Z,44.07
2022-08-03T15:47:24.933Z,44.42
2022-08-03T15:49:52.500Z,44.85
2022-08-03T15:52:19.938Z,44.92
2022-08-03T15:54:47.435Z,44.93
2022-08-03T15:57:14.854Z,44.87
2022-08-03T15:59:42.368Z,45.06
2022-08-03T16:02:10.053Z,45.65
2022-08-03T16:04:37.454Z,46.22
2022-08-03T16:07:05.008Z,46.67
2022-08-03T16:09:43.153Z,47.10
2022-08-03T16:12:15.528Z,47.01
2022-08-03T16:14:52.932Z,46.89
2022-08-03T16:17:24.237Z,46.43
2022-08-03T16:19:54.746Z,46.25
2022-08-03T16:22:24.418Z,46.40
2022-08-03T16:24:54.041Z,46.51
2022-08-03T16:27:37.606Z,46.47
2022-08-03T16:30:11.780Z,46.23
2022-08-03T16:32:39.805Z,46.18
2022-08-03T16:35:08.054Z,46.34
2022-08-03T16:37:38.763Z,46.65
2022-08-03T16:40:09.311Z,46.69
2022-08-03T16:42:46.918Z,46.59
2022-08-03T16:45:14.565Z,46.77
2022-08-03T16:47:42.247Z,46.63
2022-08-03T16:50:17.173Z,46.44
2022-08-03T16:52:48.288Z,46.16
2022-08-03T16:55:18.511Z,45.92
2022-08-03T16:58:05.691Z,45.65
2022-08-03T17:00:42.018Z,45.59
2022-08-03T17:03:18.833Z,45.40
2022-08-03T17:05:49.745Z,44.99
2022-08-03T17:08:26.111Z,44.54
2022-08-03T17:10:56.217Z,44.31
2022-08-03T17:13:27.584Z,44.05
2022-08-03T17:16:09.401Z,43.67
2022-08-03T17:18:49.717Z,43.44
2022-08-03T17:21:22.372Z,43.22
2022-08-03T17:24:19.843Z,42.72
2022-08-03T17:26:51.028Z,41.65
2022-08-03T17:29:22.924Z,40.58
2022-08-03T17:31:52.397Z,39.54
2022-08-03T17:34:26.310Z,38.56
2022-08-03T17:37:04.857Z,37.53
2022-08-03T17:39:58.694Z,36.54
2022-08-03T17:42:30.242Z,35.52
2022-08-03T17:45:02.467Z,34.74
2022-08-03T17:47:41.145Z,34.10
2022-08-03T17:50:24.211Z,33.45
2022-08-03T17:53:23.845Z,32.77
2022-08-03T17:56:44.996Z,32.06
2022-08-03T17:59:13.882Z,31.41
2022-08-03T18:02:25.192Z,30.92
2022-08-03T18:05:16.520Z,30.43
2022-08-03T18:07:59.340Z,30.04
2022-08-03T18:10:49.955Z,29.63
2022-08-03T18:13:30.223Z,29.29
2022-08-03T18:16:06.840Z,28.97
2022-08-03T18:18:43.039Z,28.66
2022-08-03T18:21:16.871Z,28.34
2022-08-03T18:23:45.862Z,28.04
2022-08-03T18:26:18.767Z,27.75
2022-08-03T18:28:48.147Z,27.48
2022-08-03T18:32:00.512Z,27.24
2022-08-03T18:34:19.213Z,26.98
2022-08-03T18:36:56.364Z,26.73
2022-08-03T18:39:24.756Z,26.53
2022-08-03T18:41:52.327Z,26.33
2022-08-03T18:44:52.835Z,26.14
2022-08-03T18:47:25.556Z,25.92
2022-08-03T18:49:58.629Z,25.70
2022-08-03T18:52:37.462Z,25.52
2022-08-03T18:55:20.609Z,25.33
2022-08-03T18:58:05.586Z,25.13
2022-08-03T19:00:53.927Z,24.94
2022-08-03T19:03:25.130Z,24.75
2022-08-03T19:06:19.950Z,24.58
2022-08-03T19:09:02.896Z,24.46
2022-08-03T19:12:26.016Z,24.31
2022-08-03T19:14:42.458Z,24.15
2022-08-03T19:17:12.491Z,24.02
2022-08-03T19:19:45.375Z,23.89
2022-08-03T19:22:13.942Z,23.78
2022-08-03T19:24:45.915Z,23.66
2022-08-03T19:27:14.180Z,23.56
2022-08-03T19:32:35.186Z,23.32
2022-08-03T19:35:05.165Z,23.20
2022-08-03T19:37:44.935Z,23.06
2022-08-03T19:40:13.019Z,22.96
2022-08-03T19:42:45.166Z,22.86
2022-08-03T19:45:21.283Z,22.78
2022-08-03T19:47:56.581Z,22.68
2022-08-03T19:50:26.207Z,22.60
2022-08-03T19:52:56.838Z,22.51
2022-08-03T19:55:28.829Z,22.43
2022-08-03T19:58:04.103Z,22.33
2022-08-03T20:00:36.950Z,22.26
2022-08-03T20:03:07.153Z,22.19
2022-08-03T20:05:51.867Z,22.12
2022-08-03T20:08:22.054Z,22.05
2022-08-03T20:10:51.354Z,21.99
2022-08-03T20:13:20.345Z,21.93
2022-08-03T20:15:47.868Z,21.87
2022-08-03T20:18:20.924Z,21.83
2022-08-03T20:20:52.618Z,21.76
2022-08-03T20:23:20.862Z,21.72
2022-08-03T20:25:58.685Z,21.68
2022-08-03T20:31:32.658Z,21.55
2022-08-03T20:34:06.539Z,21.49
2022-08-03T20:36:33.999Z,21.44
2022-08-03T20:39:02.120Z,21.39
2022-08-03T20:41:35.572Z,21.35
2022-08-03T20:44:04.589Z,21.28
2022-08-03T20:49:21.346Z,21.15
2022-08-03T20:51:53.232Z,21.10
2022-08-03T20:54:30.703Z,21.05
2022-08-03T20:57:03.644Z,20.99
2022-08-03T20:59:46.922Z,20.93
2022-08-03T21:02:19.797Z,20.88
2022-08-03T21:05:08.449Z,20.83
2022-08-03T21:08:05.036Z,20.79
2022-08-03T21:10:40.710Z,20.74
2022-08-03T21:13:10.803Z,23.45
2022-08-03T21:13:12.720Z,21.62
2022-08-03T21:13:13.010Z,21.22
2022-08-03T21:13:28.765Z,20.70
2022-08-03T21:16:04.115Z,20.66
2022-08-03T21:18:50.544Z,20.62
2022-08-03T21:21:21.524Z,20.58
2022-08-03T21:23:52.530Z,20.55
2022-08-03T21:26:23.305Z,20.51
2022-08-03T21:28:52.674Z,20.46
2022-08-03T21:31:23.753Z,20.42
2022-08-03T21:33:59.559Z,20.39
2022-08-03T21:36:29.407Z,20.35
2022-08-03T21:38:58.350Z,20.31
2022-08-03T21:41:32.716Z,20.29
2022-08-03T21:44:02.381Z,20.25
2022-08-03T21:46:35.380Z,20.22
2022-08-03T21:50:07.322Z,20.20
2022-08-03T21:51:59.187Z,20.15
2022-08-03T21:54:40.148Z,20.11
2022-08-03T21:57:19.303Z,20.09
2022-08-03T21:59:55.802Z,20.07
2022-08-03T22:02:28.112Z,20.04
2022-08-03T22:04:59.018Z,20.00
2022-08-03T22:07:29.100Z,19.98
2022-08-03T22:09:58.270Z,19.95
2022-08-03T22:12:29.010Z,19.92
2022-08-03T22:15:01.231Z,19.90
2022-08-03T22:17:54.637Z,19.87
2022-08-03T22:20:22.779Z,19.80
2022-08-03T22:22:56.609Z,19.75
2022-08-03T22:25:29.247Z,19.73
2022-08-03T22:28:04.153Z,19.71
2022-08-03T22:30:33.026Z,19.67
2022-08-03T22:33:03.898Z,19.63
2022-08-03T22:35:47.147Z,19.61
2022-08-03T22:38:17.929Z,19.60
2022-08-03T22:40:48.353Z,19.60
2022-08-03T22:43:16.441Z,19.59
2022-08-03T22:46:08.999Z,19.59
2022-08-03T22:48:40.935Z,19.58
2022-08-03T22:51:10.097Z,19.56
2022-08-03T22:53:39.204Z,19.56
2022-08-03T22:56:06.696Z,19.53
2022-08-03T22:58:34.240Z,19.49
2022-08-03T23:01:05.936Z,19.47
2022-08-03T23:03:59.737Z,19.47
2022-08-03T23:06:28.211Z,19.47
2022-08-03T23:08:56.098Z,19.48
2022-08-03T23:11:24.840Z,19.47
2022-08-03T23:13:55.258Z,19.47
2022-08-03T23:16:29.058Z,19.46
2022-08-03T23:18:59.500Z,19.46
2022-08-03T23:21:52.968Z,19.45
2022-08-03T23:24:24.646Z,19.45
2022-08-03T23:26:58.676Z,19.44
2022-08-03T23:29:26.302Z,19.44
2022-08-03T23:31:55.236Z,19.44
2022-08-03T23:34:40.643Z,19.43
2022-08-03T23:37:12.468Z,19.44
2022-08-03T23:39:40.290Z,19.43
2022-08-03T23:42:09.775Z,19.39
2022-08-03T23:44:40.101Z,19.36
2022-08-03T23:47:07.659Z,19.34
2022-08-03T23:49:35.086Z,19.33
2022-08-03T23:52:05.281Z,19.33
2022-08-03T23:54:38.766Z,19.32
2022-08-03T23:57:40.147Z,19.31
